sensor_id;sensor_type;location;lat;lon;timestamp;P1;durP1;ratioP1;P2;durP2;ratioP2
24517;SDS011;12678;51.336;12.406;2023-08-01T00:02:05;4.45;;;2.40;;
24517;SDS011;12678;51.336;12.406;2023-08-01T00:04:31;6.32;;;2.50;;
24517;SDS011;12678;51.336;12.406;2023-08-01T00:06:57;5.60;;;2.30;;
24517;SDS011;12678;51.336;12.406;2023-08-01T00:09:23;6.10;;;2.42;;
24517;SDS011;12678;51.336;12.406;2023-08-01T00:11:48;8.02;;;2.58;;
24517;SDS011;12678;51.336;12.406;2023-08-01T00:14:14;5.60;;;2.00;;
24517;SDS011;12678;51.336;12.406;2023-08-01T00:16:39;4.20;;;2.70;;
24517;SDS011;12678;51.336;12.406;2023-08-01T00:19:05;6.25;;;2.83;;
24517;SDS011;12678;51.336;12.406;2023-08-01T00:21:30;4.05;;;2.42;;
24517;SDS011;12678;51.336;12.406;2023-08-01T00:23:57;7.85;;;2.13;;
24517;SDS011;12678;51.336;12.406;2023-08-01T00:26:22;6.43;;;2.72;;
24517;SDS011;12678;51.336;12.406;2023-08-01T00:28:49;9.02;;;2.75;;
24517;SDS011;12678;51.336;12.406;2023-08-01T00:31:14;5.13;;;2.55;;
24517;SDS011;12678;51.336;12.406;2023-08-01T00:33:40;4.43;;;1.88;;
24517;SDS011;12678;51.336;12.406;2023-08-01T00:36:05;3.47;;;2.40;;
24517;SDS011;12678;51.336;12.406;2023-08-01T00:38:34;2.92;;;1.98;;
24517;SDS011;12678;51.336;12.406;2023-08-01T00:41:00;4.82;;;2.40;;
24517;SDS011;12678;51.336;12.406;2023-08-01T00:43:26;4.72;;;2.08;;
24517;SDS011;12678;51.336;12.406;2023-08-01T00:45:51;6.97;;;2.33;;
24517;SDS011;12678;51.336;12.406;2023-08-01T00:48:23;3.83;;;1.98;;
24517;SDS011;12678;51.336;12.406;2023-08-01T00:50:49;4.05;;;2.17;;
24517;SDS011;12678;51.336;12.406;2023-08-01T00:53:15;3.30;;;1.92;;
24517;SDS011;12678;51.336;12.406;2023-08-01T00:55:42;4.05;;;2.20;;
24517;SDS011;12678;51.336;12.406;2023-08-01T00:58:08;2.95;;;2.15;;
24517;SDS011;12678;51.336;12.406;2023-08-01T01:00:34;8.45;;;1.90;;
24517;SDS011;12678;51.336;12.406;2023-08-01T01:03:00;2.88;;;1.95;;
24517;SDS011;12678;51.336;12.406;2023-08-01T01:05:25;8.27;;;2.35;;
24517;SDS011;12678;51.336;12.406;2023-08-01T01:07:56;5.63;;;2.45;;
24517;SDS011;12678;51.336;12.406;2023-08-01T01:10:23;3.40;;;2.13;;
24517;SDS011;12678;51.336;12.406;2023-08-01T01:12:48;4.20;;;1.73;;
24517;SDS011;12678;51.336;12.406;2023-08-01T01:15:15;3.72;;;1.85;;
24517;SDS011;12678;51.336;12.406;2023-08-01T01:17:40;4.88;;;2.45;;
24517;SDS011;12678;51.336;12.406;2023-08-01T01:20:06;4.63;;;2.30;;
24517;SDS011;12678;51.336;12.406;2023-08-01T01:22:32;3.25;;;2.15;;
24517;SDS011;12678;51.336;12.406;2023-08-01T01:24:59;3.03;;;2.13;;
24517;SDS011;12678;51.336;12.406;2023-08-01T01:27:26;3.05;;;1.90;;
24517;SDS011;12678;51.336;12.406;2023-08-01T01:29:52;3.72;;;1.80;;
24517;SDS011;12678;51.336;12.406;2023-08-01T01:32:19;6.53;;;2.25;;
24517;SDS011;12678;51.336;12.406;2023-08-01T01:34:46;6.15;;;2.45;;
24517;SDS011;12678;51.336;12.406;2023-08-01T01:37:11;4.05;;;2.22;;
24517;SDS011;12678;51.336;12.406;2023-08-01T01:39:37;3.35;;;1.98;;
24517;SDS011;12678;51.336;12.406;2023-08-01T01:42:02;2.78;;;2.25;;
24517;SDS011;12678;51.336;12.406;2023-08-01T01:44:28;5.43;;;2.10;;
24517;SDS011;12678;51.336;12.406;2023-08-01T01:46:54;3.78;;;1.90;;
24517;SDS011;12678;51.336;12.406;2023-08-01T01:49:19;3.70;;;2.25;;
24517;SDS011;12678;51.336;12.406;2023-08-01T01:51:45;4.55;;;2.67;;
24517;SDS011;12678;51.336;12.406;2023-08-01T01:54:10;3.05;;;2.15;;
24517;SDS011;12678;51.336;12.406;2023-08-01T01:56:36;4.22;;;2.25;;
24517;SDS011;12678;51.336;12.406;2023-08-01T01:59:01;5.15;;;2.50;;
24517;SDS011;12678;51.336;12.406;2023-08-01T02:01:27;5.22;;;1.92;;
24517;SDS011;12678;51.336;12.406;2023-08-01T02:03:52;3.30;;;2.03;;
24517;SDS011;12678;51.336;12.406;2023-08-01T02:06:18;4.32;;;2.30;;
24517;SDS011;12678;51.336;12.406;2023-08-01T02:08:43;6.00;;;2.78;;
24517;SDS011;12678;51.336;12.406;2023-08-01T02:11:10;3.75;;;1.85;;
24517;SDS011;12678;51.336;12.406;2023-08-01T02:13:35;4.72;;;1.90;;
24517;SDS011;12678;51.336;12.406;2023-08-01T02:16:01;4.32;;;2.10;;
24517;SDS011;12678;51.336;12.406;2023-08-01T02:18:26;5.15;;;2.35;;
24517;SDS011;12678;51.336;12.406;2023-08-01T02:20:52;2.88;;;2.00;;
24517;SDS011;12678;51.336;12.406;2023-08-01T02:23:17;3.35;;;2.05;;
24517;SDS011;12678;51.336;12.406;2023-08-01T02:25:43;6.25;;;2.47;;
24517;SDS011;12678;51.336;12.406;2023-08-01T02:28:08;4.35;;;2.30;;
24517;SDS011;12678;51.336;12.406;2023-08-01T02:30:34;4.40;;;1.90;;
24517;SDS011;12678;51.336;12.406;2023-08-01T02:33:00;3.63;;;2.40;;
24517;SDS011;12678;51.336;12.406;2023-08-01T02:35:26;5.13;;;2.60;;
24517;SDS011;12678;51.336;12.406;2023-08-01T02:37:53;4.53;;;2.40;;
24517;SDS011;12678;51.336;12.406;2023-08-01T02:40:19;5.28;;;2.60;;
24517;SDS011;12678;51.336;12.406;2023-08-01T02:42:44;8.70;;;3.70;;
24517;SDS011;12678;51.336;12.406;2023-08-01T02:45:10;3.20;;;2.47;;
24517;SDS011;12678;51.336;12.406;2023-08-01T02:47:35;5.97;;;2.72;;
24517;SDS011;12678;51.336;12.406;2023-08-01T02:50:01;5.18;;;2.83;;
24517;SDS011;12678;51.336;12.406;2023-08-01T02:52:26;17.65;;;10.18;;
24517;SDS011;12678;51.336;12.406;2023-08-01T02:54:52;9.20;;;4.72;;
24517;SDS011;12678;51.336;12.406;2023-08-01T02:57:18;7.45;;;4.45;;
24517;SDS011;12678;51.336;12.406;2023-08-01T02:59:43;3.42;;;2.58;;
24517;SDS011;12678;51.336;12.406;2023-08-01T03:02:09;6.28;;;2.35;;
24517;SDS011;12678;51.336;12.406;2023-08-01T03:04:35;2.83;;;1.95;;
24517;SDS011;12678;51.336;12.406;2023-08-01T03:07:00;7.93;;;2.33;;
24517;SDS011;12678;51.336;12.406;2023-08-01T03:09:26;3.30;;;2.05;;
24517;SDS011;12678;51.336;12.406;2023-08-01T03:11:51;5.53;;;2.38;;
24517;SDS011;12678;51.336;12.406;2023-08-01T03:14:17;3.45;;;2.00;;
24517;SDS011;12678;51.336;12.406;2023-08-01T03:16:43;3.22;;;2.15;;
24517;SDS011;12678;51.336;12.406;2023-08-01T03:19:08;4.20;;;2.25;;
24517;SDS011;12678;51.336;12.406;2023-08-01T03:21:34;2.08;;;1.73;;
24517;SDS011;12678;51.336;12.406;2023-08-01T03:24:00;5.15;;;3.65;;
24517;SDS011;12678;51.336;12.406;2023-08-01T03:26:28;3.10;;;2.10;;
24517;SDS011;12678;51.336;12.406;2023-08-01T03:28:54;5.85;;;2.47;;
24517;SDS011;12678;51.336;12.406;2023-08-01T03:31:21;8.07;;;5.05;;
24517;SDS011;12678;51.336;12.406;2023-08-01T03:33:47;5.10;;;2.15;;
24517;SDS011;12678;51.336;12.406;2023-08-01T03:36:13;4.93;;;2.72;;
24517;SDS011;12678;51.336;12.406;2023-08-01T03:38:39;2.60;;;1.95;;
24517;SDS011;12678;51.336;12.406;2023-08-01T03:41:05;3.40;;;1.75;;
24517;SDS011;12678;51.336;12.406;2023-08-01T03:43:30;4.63;;;2.25;;
24517;SDS011;12678;51.336;12.406;2023-08-01T03:45:56;4.47;;;2.45;;
24517;SDS011;12678;51.336;12.406;2023-08-01T03:48:21;3.10;;;2.03;;
24517;SDS011;12678;51.336;12.406;2023-08-01T03:50:47;6.32;;;2.65;;
24517;SDS011;12678;51.336;12.406;2023-08-01T03:53:13;4.07;;;1.73;;
24517;SDS011;12678;51.336;12.406;2023-08-01T03:55:38;3.85;;;2.08;;
24517;SDS011;12678;51.336;12.406;2023-08-01T03:58:04;4.93;;;1.83;;
24517;SDS011;12678;51.336;12.406;2023-08-01T04:00:29;6.60;;;2.00;;
24517;SDS011;12678;51.336;12.406;2023-08-01T04:02:59;2.78;;;2.17;;
24517;SDS011;12678;51.336;12.406;2023-08-01T04:05:24;2.90;;;1.83;;
24517;SDS011;12678;51.336;12.406;2023-08-01T04:07:50;3.70;;;1.90;;
24517;SDS011;12678;51.336;12.406;2023-08-01T04:10:16;3.50;;;1.73;;
24517;SDS011;12678;51.336;12.406;2023-08-01T04:12:41;2.53;;;1.85;;
24517;SDS011;12678;51.336;12.406;2023-08-01T04:15:08;5.72;;;2.13;;
24517;SDS011;12678;51.336;12.406;2023-08-01T04:17:34;3.40;;;2.00;;
24517;SDS011;12678;51.336;12.406;2023-08-01T04:19:59;3.78;;;2.17;;
24517;SDS011;12678;51.336;12.406;2023-08-01T04:22:25;3.25;;;1.70;;
24517;SDS011;12678;51.336;12.406;2023-08-01T04:24:51;4.00;;;2.00;;
24517;SDS011;12678;51.336;12.406;2023-08-01T04:27:16;2.78;;;1.63;;
24517;SDS011;12678;51.336;12.406;2023-08-01T04:29:42;2.60;;;2.13;;
24517;SDS011;12678;51.336;12.406;2023-08-01T04:32:07;2.92;;;1.67;;
24517;SDS011;12678;51.336;12.406;2023-08-01T04:34:33;3.15;;;1.60;;
24517;SDS011;12678;51.336;12.406;2023-08-01T04:36:59;3.17;;;1.73;;
24517;SDS011;12678;51.336;12.406;2023-08-01T04:39:24;2.05;;;1.52;;
24517;SDS011;12678;51.336;12.406;2023-08-01T04:41:50;3.50;;;1.77;;
24517;SDS011;12678;51.336;12.406;2023-08-01T04:44:15;5.07;;;1.75;;
24517;SDS011;12678;51.336;12.406;2023-08-01T04:46:41;4.95;;;1.40;;
24517;SDS011;12678;51.336;12.406;2023-08-01T04:49:07;2.72;;;1.70;;
24517;SDS011;12678;51.336;12.406;2023-08-01T04:51:32;4.13;;;1.92;;
24517;SDS011;12678;51.336;12.406;2023-08-01T04:53:58;4.45;;;1.95;;
24517;SDS011;12678;51.336;12.406;2023-08-01T04:56:23;2.80;;;1.92;;
24517;SDS011;12678;51.336;12.406;2023-08-01T04:58:49;3.63;;;1.90;;
24517;SDS011;12678;51.336;12.406;2023-08-01T05:01:15;2.50;;;1.58;;
24517;SDS011;12678;51.336;12.406;2023-08-01T05:03:40;3.30;;;2.20;;
24517;SDS011;12678;51.336;12.406;2023-08-01T05:06:06;1.70;;;1.52;;
24517;SDS011;12678;51.336;12.406;2023-08-01T05:08:31;2.58;;;1.48;;
24517;SDS011;12678;51.336;12.406;2023-08-01T05:10:57;2.83;;;1.35;;
24517;SDS011;12678;51.336;12.406;2023-08-01T05:13:23;2.63;;;1.55;;
24517;SDS011;12678;51.336;12.406;2023-08-01T05:15:49;7.28;;;1.73;;
24517;SDS011;12678;51.336;12.406;2023-08-01T05:18:15;3.67;;;2.25;;
24517;SDS011;12678;51.336;12.406;2023-08-01T05:20:42;2.05;;;1.70;;
24517;SDS011;12678;51.336;12.406;2023-08-01T05:23:07;4.35;;;2.03;;
24517;SDS011;12678;51.336;12.406;2023-08-01T05:25:33;3.75;;;2.50;;
24517;SDS011;12678;51.336;12.406;2023-08-01T05:27:59;2.85;;;1.40;;
24517;SDS011;12678;51.336;12.406;2023-08-01T05:30:25;2.38;;;1.58;;
24517;SDS011;12678;51.336;12.406;2023-08-01T05:32:50;7.10;;;1.77;;
24517;SDS011;12678;51.336;12.406;2023-08-01T05:35:16;4.00;;;2.08;;
24517;SDS011;12678;51.336;12.406;2023-08-01T05:37:42;4.57;;;1.70;;
24517;SDS011;12678;51.336;12.406;2023-08-01T05:40:08;5.40;;;2.17;;
24517;SDS011;12678;51.336;12.406;2023-08-01T05:42:34;2.50;;;1.77;;
24517;SDS011;12678;51.336;12.406;2023-08-01T05:45:00;8.38;;;1.50;;
24517;SDS011;12678;51.336;12.406;2023-08-01T05:47:25;3.28;;;1.80;;
24517;SDS011;12678;51.336;12.406;2023-08-01T05:49:51;2.67;;;1.40;;
24517;SDS011;12678;51.336;12.406;2023-08-01T05:52:16;3.88;;;1.60;;
24517;SDS011;12678;51.336;12.406;2023-08-01T05:54:42;2.83;;;1.40;;
24517;SDS011;12678;51.336;12.406;2023-08-01T05:57:07;2.50;;;1.25;;
24517;SDS011;12678;51.336;12.406;2023-08-01T05:59:33;3.22;;;1.27;;
24517;SDS011;12678;51.336;12.406;2023-08-01T06:01:59;3.55;;;1.70;;
24517;SDS011;12678;51.336;12.406;2023-08-01T06:04:24;3.58;;;1.30;;
24517;SDS011;12678;51.336;12.406;2023-08-01T06:06:50;2.55;;;1.40;;
24517;SDS011;12678;51.336;12.406;2023-08-01T06:09:16;1.95;;;1.45;;
24517;SDS011;12678;51.336;12.406;2023-08-01T06:11:41;1.95;;;1.40;;
24517;SDS011;12678;51.336;12.406;2023-08-01T06:14:08;3.33;;;1.30;;
24517;SDS011;12678;51.336;12.406;2023-08-01T06:16:34;2.15;;;1.23;;
24517;SDS011;12678;51.336;12.406;2023-08-01T06:19:00;1.92;;;1.10;;
24517;SDS011;12678;51.336;12.406;2023-08-01T06:21:25;2.10;;;1.40;;
24517;SDS011;12678;51.336;12.406;2023-08-01T06:23:51;2.67;;;1.08;;
24517;SDS011;12678;51.336;12.406;2023-08-01T06:26:16;2.08;;;1.20;;
24517;SDS011;12678;51.336;12.406;2023-08-01T06:28:42;1.05;;;0.93;;
24517;SDS011;12678;51.336;12.406;2023-08-01T06:31:07;1.20;;;0.88;;
24517;SDS011;12678;51.336;12.406;2023-08-01T06:33:33;6.95;;;1.63;;
24517;SDS011;12678;51.336;12.406;2023-08-01T06:35:59;2.33;;;1.20;;
24517;SDS011;12678;51.336;12.406;2023-08-01T06:38:24;0.93;;;0.65;;
24517;SDS011;12678;51.336;12.406;2023-08-01T06:40:50;1.55;;;0.88;;
24517;SDS011;12678;51.336;12.406;2023-08-01T06:43:15;0.70;;;0.70;;
24517;SDS011;12678;51.336;12.406;2023-08-01T06:45:41;1.27;;;0.82;;
24517;SDS011;12678;51.336;12.406;2023-08-01T06:48:06;3.40;;;0.77;;
24517;SDS011;12678;51.336;12.406;2023-08-01T06:50:33;1.30;;;1.02;;
24517;SDS011;12678;51.336;12.406;2023-08-01T06:52:58;0.80;;;0.70;;
24517;SDS011;12678;51.336;12.406;2023-08-01T06:55:25;6.70;;;0.93;;
24517;SDS011;12678;51.336;12.406;2023-08-01T06:57:51;3.03;;;1.10;;
24517;SDS011;12678;51.336;12.406;2023-08-01T07:00:16;2.05;;;0.88;;
24517;SDS011;12678;51.336;12.406;2023-08-01T07:02:42;1.35;;;0.77;;
24517;SDS011;12678;51.336;12.406;2023-08-01T07:05:08;0.93;;;0.40;;
24517;SDS011;12678;51.336;12.406;2023-08-01T07:07:33;1.83;;;0.70;;
24517;SDS011;12678;51.336;12.406;2023-08-01T07:09:59;1.10;;;0.90;;
24517;SDS011;12678;51.336;12.406;2023-08-01T07:12:24;1.92;;;0.80;;
24517;SDS011;12678;51.336;12.406;2023-08-01T07:14:50;5.28;;;0.88;;
24517;SDS011;12678;51.336;12.406;2023-08-01T07:17:16;0.98;;;0.40;;
24517;SDS011;12678;51.336;12.406;2023-08-01T07:19:42;2.20;;;1.13;;
24517;SDS011;12678;51.336;12.406;2023-08-01T07:22:07;1.00;;;0.90;;
24517;SDS011;12678;51.336;12.406;2023-08-01T07:24:33;2.60;;;0.82;;
24517;SDS011;12678;51.336;12.406;2023-08-01T07:26:58;1.58;;;0.50;;
24517;SDS011;12678;51.336;12.406;2023-08-01T07:29:24;1.45;;;0.70;;
24517;SDS011;12678;51.336;12.406;2023-08-01T07:31:49;1.35;;;0.75;;
24517;SDS011;12678;51.336;12.406;2023-08-01T07:34:15;6.15;;;1.00;;
24517;SDS011;12678;51.336;12.406;2023-08-01T07:36:41;0.90;;;0.70;;
24517;SDS011;12678;51.336;12.406;2023-08-01T07:39:06;2.00;;;0.70;;
24517;SDS011;12678;51.336;12.406;2023-08-01T07:41:32;1.70;;;0.95;;
24517;SDS011;12678;51.336;12.406;2023-08-01T07:44:00;6.47;;;1.30;;
24517;SDS011;12678;51.336;12.406;2023-08-01T07:46:27;7.05;;;1.00;;
24517;SDS011;12678;51.336;12.406;2023-08-01T07:48:52;3.78;;;0.90;;
24517;SDS011;12678;51.336;12.406;2023-08-01T07:51:19;9.02;;;3.95;;
24517;SDS011;12678;51.336;12.406;2023-08-01T07:53:44;2.65;;;1.27;;
24517;SDS011;12678;51.336;12.406;2023-08-01T07:56:10;1.88;;;1.08;;
24517;SDS011;12678;51.336;12.406;2023-08-01T07:58:36;3.25;;;0.57;;
24517;SDS011;12678;51.336;12.406;2023-08-01T08:01:04;2.88;;;0.68;;
24517;SDS011;12678;51.336;12.406;2023-08-01T08:03:31;4.93;;;0.50;;
24517;SDS011;12678;51.336;12.406;2023-08-01T08:05:57;3.60;;;1.05;;
24517;SDS011;12678;51.336;12.406;2023-08-01T08:08:23;10.27;;;1.63;;
24517;SDS011;12678;51.336;12.406;2023-08-01T08:10:49;1.30;;;0.82;;
24517;SDS011;12678;51.336;12.406;2023-08-01T08:13:14;1.13;;;0.77;;
24517;SDS011;12678;51.336;12.406;2023-08-01T08:15:40;4.50;;;0.90;;
24517;SDS011;12678;51.336;12.406;2023-08-01T08:18:05;1.75;;;0.80;;
24517;SDS011;12678;51.336;12.406;2023-08-01T08:20:34;0.70;;;0.70;;
24517;SDS011;12678;51.336;12.406;2023-08-01T08:23:08;1.73;;;1.00;;
24517;SDS011;12678;51.336;12.406;2023-08-01T08:25:33;1.88;;;0.70;;
24517;SDS011;12678;51.336;12.406;2023-08-01T08:27:59;1.30;;;0.70;;
24517;SDS011;12678;51.336;12.406;2023-08-01T08:30:25;2.42;;;0.88;;
24517;SDS011;12678;51.336;12.406;2023-08-01T08:32:50;0.65;;;0.57;;
24517;SDS011;12678;51.336;12.406;2023-08-01T08:35:16;4.18;;;0.80;;
24517;SDS011;12678;51.336;12.406;2023-08-01T08:37:41;2.17;;;1.08;;
24517;SDS011;12678;51.336;12.406;2023-08-01T08:40:07;1.38;;;0.70;;
24517;SDS011;12678;51.336;12.406;2023-08-01T08:42:33;1.48;;;0.80;;
24517;SDS011;12678;51.336;12.406;2023-08-01T08:45:02;1.90;;;0.88;;
24517;SDS011;12678;51.336;12.406;2023-08-01T08:47:30;1.60;;;0.60;;
24517;SDS011;12678;51.336;12.406;2023-08-01T08:50:00;1.08;;;0.80;;
24517;SDS011;12678;51.336;12.406;2023-08-01T08:52:26;0.60;;;0.60;;
24517;SDS011;12678;51.336;12.406;2023-08-01T08:54:52;0.90;;;0.70;;
24517;SDS011;12678;51.336;12.406;2023-08-01T08:57:18;3.60;;;0.70;;
24517;SDS011;12678;51.336;12.406;2023-08-01T08:59:45;2.15;;;1.00;;
24517;SDS011;12678;51.336;12.406;2023-08-01T09:02:12;0.68;;;0.50;;
24517;SDS011;12678;51.336;12.406;2023-08-01T09:04:40;0.85;;;0.50;;
24517;SDS011;12678;51.336;12.406;2023-08-01T09:07:07;1.38;;;0.93;;
24517;SDS011;12678;51.336;12.406;2023-08-01T09:09:36;1.33;;;0.75;;
24517;SDS011;12678;51.336;12.406;2023-08-01T09:12:02;1.27;;;0.80;;
24517;SDS011;12678;51.336;12.406;2023-08-01T09:14:28;1.85;;;0.70;;
24517;SDS011;12678;51.336;12.406;2023-08-01T09:16:54;2.83;;;1.10;;
24517;SDS011;12678;51.336;12.406;2023-08-01T09:19:21;6.15;;;0.95;;
24517;SDS011;12678;51.336;12.406;2023-08-01T09:21:48;1.73;;;0.80;;
24517;SDS011;12678;51.336;12.406;2023-08-01T09:24:19;1.73;;;0.90;;
24517;SDS011;12678;51.336;12.406;2023-08-01T09:26:46;2.60;;;0.90;;
24517;SDS011;12678;51.336;12.406;2023-08-01T09:29:15;0.85;;;0.70;;
24517;SDS011;12678;51.336;12.406;2023-08-01T09:31:42;1.85;;;0.80;;
24517;SDS011;12678;51.336;12.406;2023-08-01T09:34:24;1.90;;;0.75;;
24517;SDS011;12678;51.336;12.406;2023-08-01T09:36:57;1.25;;;0.88;;
24517;SDS011;12678;51.336;12.406;2023-08-01T09:39:23;4.73;;;1.13;;
24517;SDS011;12678;51.336;12.406;2023-08-01T09:41:56;2.25;;;1.13;;
24517;SDS011;12678;51.336;12.406;2023-08-01T09:44:22;1.83;;;0.95;;
24517;SDS011;12678;51.336;12.406;2023-08-01T09:47:03;2.03;;;0.88;;
24517;SDS011;12678;51.336;12.406;2023-08-01T09:49:31;1.65;;;1.05;;
24517;SDS011;12678;51.336;12.406;2023-08-01T09:51:58;0.95;;;0.80;;
24517;SDS011;12678;51.336;12.406;2023-08-01T09:54:24;1.02;;;0.80;;
24517;SDS011;12678;51.336;12.406;2023-08-01T09:56:51;0.40;;;0.40;;
24517;SDS011;12678;51.336;12.406;2023-08-01T09:59:21;1.02;;;0.80;;
24517;SDS011;12678;51.336;12.406;2023-08-01T10:01:48;1.30;;;0.88;;
24517;SDS011;12678;51.336;12.406;2023-08-01T10:04:16;2.30;;;1.25;;
24517;SDS011;12678;51.336;12.406;2023-08-01T10:06:49;1.67;;;0.90;;
24517;SDS011;12678;51.336;12.406;2023-08-01T10:09:22;1.10;;;1.00;;
24517;SDS011;12678;51.336;12.406;2023-08-01T10:11:48;0.73;;;0.68;;
24517;SDS011;12678;51.336;12.406;2023-08-01T10:14:16;2.60;;;0.68;;
24517;SDS011;12678;51.336;12.406;2023-08-01T10:16:42;1.63;;;0.88;;
24517;SDS011;12678;51.336;12.406;2023-08-01T10:19:08;3.63;;;0.70;;
24517;SDS011;12678;51.336;12.406;2023-08-01T10:21:36;1.67;;;0.80;;
24517;SDS011;12678;51.336;12.406;2023-08-01T10:24:02;1.83;;;0.80;;
24517;SDS011;12678;51.336;12.406;2023-08-01T10:26:30;7.15;;;1.98;;
24517;SDS011;12678;51.336;12.406;2023-08-01T10:28:56;3.53;;;0.93;;
24517;SDS011;12678;51.336;12.406;2023-08-01T10:31:23;0.88;;;0.40;;
24517;SDS011;12678;51.336;12.406;2023-08-01T10:33:49;1.23;;;0.93;;
24517;SDS011;12678;51.336;12.406;2023-08-01T10:36:19;0.77;;;0.60;;
24517;SDS011;12678;51.336;12.406;2023-08-01T10:41:34;1.83;;;0.70;;
24517;SDS011;12678;51.336;12.406;2023-08-01T10:44:11;0.43;;;0.40;;
24517;SDS011;12678;51.336;12.406;2023-08-01T10:46:49;1.45;;;0.40;;
24517;SDS011;12678;51.336;12.406;2023-08-01T10:49:17;0.68;;;0.60;;
24517;SDS011;12678;51.336;12.406;2023-08-01T10:51:43;1.30;;;0.60;;
24517;SDS011;12678;51.336;12.406;2023-08-01T10:56:49;1.48;;;0.80;;
24517;SDS011;12678;51.336;12.406;2023-08-01T10:59:16;3.53;;;0.75;;
24517;SDS011;12678;51.336;12.406;2023-08-01T11:01:49;0.63;;;0.60;;
24517;SDS011;12678;51.336;12.406;2023-08-01T11:04:19;1.05;;;0.75;;
24517;SDS011;12678;51.336;12.406;2023-08-01T11:06:47;1.85;;;0.98;;
24517;SDS011;12678;51.336;12.406;2023-08-01T11:09:24;1.27;;;0.85;;
24517;SDS011;12678;51.336;12.406;2023-08-01T11:11:52;1.40;;;0.50;;
24517;SDS011;12678;51.336;12.406;2023-08-01T11:14:22;1.25;;;0.75;;
24517;SDS011;12678;51.336;12.406;2023-08-01T11:16:50;4.78;;;0.70;;
24517;SDS011;12678;51.336;12.406;2023-08-01T11:19:19;1.20;;;1.00;;
24517;SDS011;12678;51.336;12.406;2023-08-01T11:21:46;1.38;;;1.17;;
24517;SDS011;12678;51.336;12.406;2023-08-01T11:24:12;1.83;;;1.38;;
24517;SDS011;12678;51.336;12.406;2023-08-01T11:26:41;2.90;;;1.38;;
24517;SDS011;12678;51.336;12.406;2023-08-01T11:29:08;2.42;;;1.40;;
24517;SDS011;12678;51.336;12.406;2023-08-01T11:31:35;2.97;;;1.45;;
24517;SDS011;12678;51.336;12.406;2023-08-01T11:34:00;2.08;;;1.55;;
24517;SDS011;12678;51.336;12.406;2023-08-01T11:36:26;1.30;;;1.20;;
24517;SDS011;12678;51.336;12.406;2023-08-01T11:38:54;2.28;;;1.40;;
24517;SDS011;12678;51.336;12.406;2023-08-01T11:41:23;2.17;;;1.35;;
24517;SDS011;12678;51.336;12.406;2023-08-01T11:43:49;1.77;;;1.48;;
24517;SDS011;12678;51.336;12.406;2023-08-01T11:46:16;2.65;;;1.83;;
24517;SDS011;12678;51.336;12.406;2023-08-01T11:48:45;4.00;;;1.40;;
24517;SDS011;12678;51.336;12.406;2023-08-01T11:51:16;3.47;;;1.70;;
24517;SDS011;12678;51.336;12.406;2023-08-01T11:53:42;3.08;;;1.83;;
24517;SDS011;12678;51.336;12.406;2023-08-01T11:56:08;5.80;;;1.90;;
24517;SDS011;12678;51.336;12.406;2023-08-01T11:58:44;2.47;;;1.77;;
24517;SDS011;12678;51.336;12.406;2023-08-01T12:01:10;5.50;;;1.85;;
24517;SDS011;12678;51.336;12.406;2023-08-01T12:03:46;7.05;;;2.03;;
24517;SDS011;12678;51.336;12.406;2023-08-01T12:06:12;4.55;;;1.90;;
24517;SDS011;12678;51.336;12.406;2023-08-01T12:08:39;3.45;;;1.80;;
24517;SDS011;12678;51.336;12.406;2023-08-01T12:13:46;2.90;;;2.00;;
24517;SDS011;12678;51.336;12.406;2023-08-01T12:16:12;5.45;;;2.50;;
24517;SDS011;12678;51.336;12.406;2023-08-01T12:18:40;3.40;;;1.80;;
24517;SDS011;12678;51.336;12.406;2023-08-01T12:21:07;4.20;;;2.15;;
24517;SDS011;12678;51.336;12.406;2023-08-01T12:23:33;2.65;;;1.77;;
24517;SDS011;12678;51.336;12.406;2023-08-01T12:25:58;4.50;;;2.30;;
24517;SDS011;12678;51.336;12.406;2023-08-01T12:28:24;3.55;;;2.03;;
24517;SDS011;12678;51.336;12.406;2023-08-01T12:30:50;2.60;;;1.77;;
24517;SDS011;12678;51.336;12.406;2023-08-01T12:33:16;7.28;;;2.40;;
24517;SDS011;12678;51.336;12.406;2023-08-01T12:35:42;5.13;;;2.92;;
24517;SDS011;12678;51.336;12.406;2023-08-01T12:38:08;4.18;;;2.35;;
24517;SDS011;12678;51.336;12.406;2023-08-01T12:40:34;4.43;;;1.85;;
24517;SDS011;12678;51.336;12.406;2023-08-01T12:42:59;3.42;;;2.35;;
24517;SDS011;12678;51.336;12.406;2023-08-01T12:45:25;4.03;;;2.10;;
24517;SDS011;12678;51.336;12.406;2023-08-01T12:47:51;4.95;;;2.30;;
24517;SDS011;12678;51.336;12.406;2023-08-01T12:50:16;3.25;;;2.08;;
24517;SDS011;12678;51.336;12.406;2023-08-01T12:52:42;4.88;;;2.30;;
24517;SDS011;12678;51.336;12.406;2023-08-01T12:55:07;5.32;;;2.78;;
24517;SDS011;12678;51.336;12.406;2023-08-01T12:57:33;3.80;;;2.17;;
24517;SDS011;12678;51.336;12.406;2023-08-01T12:59:59;3.17;;;2.17;;
24517;SDS011;12678;51.336;12.406;2023-08-01T13:02:26;5.93;;;2.50;;
24517;SDS011;12678;51.336;12.406;2023-08-01T13:04:52;3.25;;;1.67;;
24517;SDS011;12678;51.336;12.406;2023-08-01T13:07:17;4.60;;;2.50;;
24517;SDS011;12678;51.336;12.406;2023-08-01T13:09:43;4.88;;;2.15;;
24517;SDS011;12678;51.336;12.406;2023-08-01T13:12:08;4.43;;;2.13;;
24517;SDS011;12678;51.336;12.406;2023-08-01T13:14:34;5.40;;;2.25;;
24517;SDS011;12678;51.336;12.406;2023-08-01T13:16:59;4.00;;;2.25;;
24517;SDS011;12678;51.336;12.406;2023-08-01T13:19:25;5.53;;;2.20;;
24517;SDS011;12678;51.336;12.406;2023-08-01T13:21:51;2.67;;;2.17;;
24517;SDS011;12678;51.336;12.406;2023-08-01T13:24:16;5.40;;;2.30;;
24517;SDS011;12678;51.336;12.406;2023-08-01T13:26:42;4.00;;;2.33;;
24517;SDS011;12678;51.336;12.406;2023-08-01T13:29:07;3.88;;;2.50;;
24517;SDS011;12678;51.336;12.406;2023-08-01T13:31:33;8.73;;;2.47;;
24517;SDS011;12678;51.336;12.406;2023-08-01T13:33:59;5.72;;;2.67;;
24517;SDS011;12678;51.336;12.406;2023-08-01T13:36:24;4.80;;;2.75;;
24517;SDS011;12678;51.336;12.406;2023-08-01T13:38:50;5.43;;;3.33;;
24517;SDS011;12678;51.336;12.406;2023-08-01T13:41:16;3.75;;;2.65;;
24517;SDS011;12678;51.336;12.406;2023-08-01T13:43:41;11.15;;;3.97;;
24517;SDS011;12678;51.336;12.406;2023-08-01T13:46:11;6.40;;;3.20;;
24517;SDS011;12678;51.336;12.406;2023-08-01T13:48:39;4.05;;;2.78;;
24517;SDS011;12678;51.336;12.406;2023-08-01T13:51:06;10.27;;;3.42;;
24517;SDS011;12678;51.336;12.406;2023-08-01T13:53:31;5.50;;;2.97;;
24517;SDS011;12678;51.336;12.406;2023-08-01T13:55:57;4.93;;;3.10;;
24517;SDS011;12678;51.336;12.406;2023-08-01T13:58:23;5.35;;;3.20;;
24517;SDS011;12678;51.336;12.406;2023-08-01T14:00:48;9.15;;;3.33;;
24517;SDS011;12678;51.336;12.406;2023-08-01T14:03:14;9.13;;;3.13;;
24517;SDS011;12678;51.336;12.406;2023-08-01T14:05:39;5.30;;;3.28;;
24517;SDS011;12678;51.336;12.406;2023-08-01T14:08:05;7.50;;;3.50;;
24517;SDS011;12678;51.336;12.406;2023-08-01T14:10:30;14.50;;;4.20;;
24517;SDS011;12678;51.336;12.406;2023-08-01T14:12:56;8.15;;;3.85;;
24517;SDS011;12678;51.336;12.406;2023-08-01T14:15:22;5.53;;;2.80;;
24517;SDS011;12678;51.336;12.406;2023-08-01T14:17:47;3.50;;;2.00;;
24517;SDS011;12678;51.336;12.406;2023-08-01T14:20:13;5.47;;;2.08;;
24517;SDS011;12678;51.336;12.406;2023-08-01T14:22:38;5.10;;;2.42;;
24517;SDS011;12678;51.336;12.406;2023-08-01T14:25:07;4.50;;;3.28;;
24517;SDS011;12678;51.336;12.406;2023-08-01T14:27:33;7.05;;;3.28;;
24517;SDS011;12678;51.336;12.406;2023-08-01T14:29:59;10.23;;;4.03;;
24517;SDS011;12678;51.336;12.406;2023-08-01T14:32:27;6.15;;;4.05;;
24517;SDS011;12678;51.336;12.406;2023-08-01T14:34:52;7.85;;;4.05;;
24517;SDS011;12678;51.336;12.406;2023-08-01T14:37:18;7.30;;;3.95;;